Terminal Aerodrome Forecast
Issued by NWS Brownsville, TX

Current Version | Previous Version | Text Only | Print | Product List | Glossary Off
Versions: 1 2 3 4 5 6 7 8 9 10 11 12 13 14

000
FTUS44 KBRO 241120
TAFBRO
TAF
KBRO 241120Z 2412/2512 05003KT P6SM FEW015
     FM241400 16007KT P6SM SCT030
     FM241600 11012KT P6SM SCT050
     FM250300 14005KT P6SM FEW015=

USA.gov is the U.S. government's official web portal to all federal, state and local government web resources and services.